Terminal Aerodrome Forecast
Issued by NWS

Current Version | Previous Version | Graphics & Text | Print | Product List | Glossary On
Versions: 1 2 3 4 5 6 7 8 9 10 11 12 13 14 15 16 17 18 19
000
FTUS41 KILN 281700 AAC
TAFLUK
TAF AMD
KLUK 281705Z 2817/2912 23012KT P6SM -SHRA BKN030 OVC045
      TEMPO 2817/2818 3SM -SHRA BR BKN022
     FM281900 23011KT P6SM BKN045 OVC080
     FM282000 26008KT P6SM SCT100 BKN200
     FM290300 29003KT P6SM SCT200=

USA.gov is the U.S. government's official web portal to all federal, state and local government web resources and services.